Terminal Aerodrome Forecast
Issued by NWS

Home | Current Version | Previous Version | Text Only | Print | Product List | Glossary On
Versions: 1 2 3 4 5 6 7 8 9 10 11 12 13
000
FTUS45 KRIW 021720
TAFBPI
TAF
KBPI 021720Z 0218/0318 25015G24KT P6SM SKC
     FM030130 20008KT P6SM FEW070
     FM030500 VRB06KT P6SM SCT150 WS010/22035KT
     FM031200 VRB06KT P6SM SCT120
     FM031700 21010KT P6SM SCT080=

USA.gov is the U.S. government's official web portal to all federal, state and local government web resources and services.